Time;durP1;ratioP1;P1;durP2;ratioP2;P2;SDS_P1;SDS_P2;PMS_P1;PMS_P2;Temp;Humidity;BMP_temperature;BMP_pressure;BME280_temperature;BME280_humidity;BME280_pressure;Samples;Min_cycle;Max_cycle;Signal;HPM_P1;HPM_P2
2021/06/23 00:02:14;;;;;;;41.08;22.65;;;;;;;14.44;79.35;101557.88;5131928;28;20122;-63
2021/06/23 00:04:43;;;;;;;46.35;20.90;;;;;;;14.49;77.69;101553.72;5132537;28;20088;-62
2021/06/23 00:07:10;;;;;;;36.17;21.30;;;;;;;14.38;78.18;101568.19;5115469;28;20043;-63
2021/06/23 00:09:37;;;;;;;39.33;21.30;;;;;;;14.37;78.92;101565.66;5115384;28;20035;-63
2021/06/23 00:12:04;;;;;;;44.15;21.13;;;;;;;14.35;78.27;101570.34;5133373;28;20043;-62
2021/06/23 00:14:31;;;;;;;41.60;21.42;;;;;;;14.37;79.08;101576.34;5115384;28;20134;-62
2021/06/23 00:16:58;;;;;;;43.10;21.58;;;;;;;14.33;79.73;101575.00;5133137;28;20107;-63
2021/06/23 00:19:25;;;;;;;44.67;22.92;;;;;;;14.38;80.26;101575.38;5132909;28;20071;-62
2021/06/23 00:21:52;;;;;;;43.00;22.63;;;;;;;14.34;80.37;101577.50;5133521;28;20039;-62
2021/06/23 00:24:18;;;;;;;41.10;21.27;;;;;;;14.31;79.26;101585.81;5133576;28;20047;-62
2021/06/23 00:26:45;;;;;;;43.97;22.75;;;;;;;14.28;79.37;101593.31;5132929;28;20043;-62
2021/06/23 00:29:12;;;;;;;39.75;21.73;;;;;;;14.32;79.48;101597.38;5115214;28;20047;-62
2021/06/23 00:31:39;;;;;;;35.60;20.75;;;;;;;14.32;78.50;101600.03;5113130;28;20044;-62
2021/06/23 00:34:10;;;;;;;33.83;21.13;;;;;;;14.38;78.71;101594.88;5114340;28;20418;-62
2021/06/23 00:36:38;;;;;;;46.80;20.45;;;;;;;14.42;78.21;101598.06;5132987;28;20039;-62
2021/06/23 00:39:05;;;;;;;36.88;19.23;;;;;;;14.59;76.87;101601.72;5133249;28;20053;-62
2021/06/23 00:41:34;;;;;;;35.47;19.42;;;;;;;14.36;77.98;101596.88;5133147;28;20082;-62
2021/06/23 00:44:01;;;;;;;37.17;20.80;;;;;;;14.40;76.99;101595.56;5115061;28;20059;-63
2021/06/23 00:46:30;;;;;;;41.13;20.73;;;;;;;14.40;77.32;101602.72;5132754;28;20051;-62
2021/06/23 00:49:02;;;;;;;33.78;19.95;;;;;;;14.38;77.42;101602.06;5132469;28;20051;-62
2021/06/23 00:51:49;;;;;;;39.90;19.65;;;;;;;14.43;77.55;101610.44;5133008;28;20433;-62
2021/06/23 00:54:28;;;;;;;39.60;20.23;;;;;;;14.27;77.39;101608.50;5133538;28;20077;-62
2021/06/23 00:56:57;;;;;;;39.17;20.90;;;;;;;14.26;78.16;101606.84;5134264;27;20047;-62
2021/06/23 00:59:26;;;;;;;38.55;20.17;;;;;;;14.32;76.68;101597.38;5136783;27;20530;-62
2021/06/23 01:01:54;;;;;;;38.53;19.65;;;;;;;14.36;77.14;101602.22;5134870;27;20126;-63
2021/06/23 01:04:21;;;;;;;34.88;20.17;;;;;;;14.44;76.62;101593.41;5118101;27;20050;-62
2021/06/23 01:06:48;;;;;;;36.70;20.13;;;;;;;14.24;77.92;101594.63;5136649;27;20042;-63
2021/06/23 01:09:16;;;;;;;41.65;20.98;;;;;;;14.22;79.22;101594.78;5118252;27;20096;-62
2021/06/23 01:12:02;;;;;;;41.38;19.88;;;;;;;14.21;77.65;101593.13;5118452;27;20147;-63
2021/06/23 01:14:35;;;;;;;38.65;20.75;;;;;;;14.33;77.17;101591.00;5118223;27;20043;-62
2021/06/23 01:17:04;;;;;;;43.95;20.95;;;;;;;14.25;78.86;101597.16;5118542;27;20043;-62
2021/06/23 01:19:36;;;;;;;39.50;20.73;;;;;;;14.34;77.21;101595.38;5136375;27;20084;-63
2021/06/23 01:22:03;;;;;;;35.33;19.80;;;;;;;14.46;76.71;101593.25;5136185;27;20560;-62
2021/06/23 01:24:31;;;;;;;37.13;20.65;;;;;;;14.27;77.20;101592.47;5136112;27;20415;-62
2021/06/23 01:26:59;;;;;;;36.60;20.17;;;;;;;14.33;77.70;101586.50;5135961;27;20092;-62
2021/06/23 01:29:27;;;;;;;34.45;19.85;;;;;;;14.29;77.51;101592.34;5136224;27;20039;-63
2021/06/23 01:31:59;;;;;;;34.97;21.58;;;;;;;14.36;77.30;101588.03;5136056;27;20074;-62
2021/06/23 01:34:26;;;;;;;41.67;20.45;;;;;;;14.35;76.48;101589.88;5135740;27;20039;-63
2021/06/23 01:36:53;;;;;;;42.95;21.25;;;;;;;14.43;77.35;101586.41;5135883;27;20391;-63
2021/06/23 01:39:20;;;;;;;36.85;21.17;;;;;;;14.30;77.98;101597.53;5117706;27;20419;-62
2021/06/23 01:41:48;;;;;;;42.20;19.52;;;;;;;14.27;76.37;101591.66;5132415;27;20043;-62
2021/06/23 01:44:19;;;;;;;34.03;20.67;;;;;;;14.21;77.25;101593.97;5117553;27;20047;-62
2021/06/23 01:46:46;;;;;;;40.10;20.55;;;;;;;14.24;77.55;101600.78;5134787;27;20491;-62
2021/06/23 01:49:20;;;;;;;42.15;21.65;;;;;;;14.17;77.76;101599.75;5113815;28;20056;-62
2021/06/23 01:51:48;;;;;;;44.47;21.42;;;;;;;14.29;77.65;101608.34;5115112;28;20040;-62
2021/06/23 01:54:15;;;;;;;38.30;20.80;;;;;;;14.21;77.63;101599.28;5113404;28;20108;-62
2021/06/23 01:56:44;;;;;;;36.88;21.02;;;;;;;14.16;78.11;101600.75;5114901;28;20048;-63
2021/06/23 01:59:11;;;;;;;34.40;20.60;;;;;;;14.15;78.69;101607.94;5104914;28;20093;-62
2021/06/23 02:02:05;;;;;;;39.63;19.85;;;;;;;14.22;77.43;101608.13;5079252;28;20183;-62
2021/06/23 02:04:52;;;;;;;37.22;19.80;;;;;;;14.34;77.07;101595.38;5109253;28;20035;-62
2021/06/23 02:10:41;;;;;;;47.83;20.75;;;;;;;14.23;77.41;101607.16;5110829;27;20177;-62
2021/06/23 02:13:52;;;;;;;38.22;20.08;;;;;;;14.24;76.83;101607.97;5094736;28;20051;-62
2021/06/23 02:16:41;;;;;;;38.08;19.50;;;;;;;14.40;76.19;101602.72;5110105;28;20089;-62
2021/06/23 02:19:12;;;;;;;46.28;20.75;;;;;;;14.28;77.41;101612.00;5110447;28;20036;-62
2021/06/23 02:21:52;;;;;;;31.65;19.63;;;;;;;14.24;77.94;101613.31;5110391;28;20523;-62
2021/06/23 02:24:20;;;;;;;40.15;21.05;;;;;;;14.41;77.46;101612.44;5108311;28;20044;-62
2021/06/23 02:26:54;;;;;;;38.33;19.30;;;;;;;14.27;77.05;101619.16;5110038;28;20067;-62
2021/06/23 02:29:21;;;;;;;39.15;18.63;;;;;;;14.28;75.91;101622.66;5110219;28;20575;-62
2021/06/23 02:31:51;;;;;;;32.60;18.08;;;;;;;14.18;76.82;101620.13;5092142;28;20100;-62
2021/06/23 02:34:19;;;;;;;35.38;18.55;;;;;;;14.14;77.60;101618.75;5110018;28;20534;-62
2021/06/23 02:37:06;;;;;;;40.85;18.55;;;;;;;14.04;76.97;101618.84;5109699;28;20036;-62
2021/06/23 02:39:35;;;;;;;41.70;20.08;;;;;;;14.17;76.74;101624.63;5092140;28;20044;-62
2021/06/23 02:42:04;;;;;;;37.05;19.58;;;;;;;14.21;77.67;101622.47;5109902;28;20040;-63
2021/06/23 02:44:31;;;;;;;35.35;18.40;;;;;;;14.19;77.25;101625.31;5091894;28;20142;-62
2021/06/23 02:46:59;;;;;;;37.97;18.70;;;;;;;14.23;77.08;101633.84;5109743;28;20039;-62
2021/06/23 02:49:42;;;;;;;33.13;17.05;;;;;;;14.25;76.29;101629.16;5108443;28;20074;-63
2021/06/23 02:52:09;;;;;;;32.75;17.42;;;;;;;14.28;75.43;101630.69;5091915;28;20093;-62
2021/06/23 02:54:37;;;;;;;37.10;18.67;;;;;;;14.33;76.51;101618.53;5109616;28;20384;-63
2021/06/23 02:57:23;;;;;;;38.45;18.33;;;;;;;14.29;75.97;101619.84;5109519;28;20066;-63
2021/06/23 02:59:52;;;;;;;32.03;17.35;;;;;;;14.11;75.96;101625.22;5091341;28;20127;-62
2021/06/23 03:02:19;;;;;;;40.72;17.02;;;;;;;14.20;75.84;101629.63;5109493;28;20047;-63
2021/06/23 03:04:48;;;;;;;37.50;17.50;;;;;;;14.12;76.13;101626.91;5109775;28;20071;-63
2021/06/23 03:07:22;;;;;;;36.92;17.30;;;;;;;14.08;76.43;101620.22;5109474;28;20043;-63
2021/06/23 03:10:12;;;;;;;34.03;17.83;;;;;;;14.07;76.77;101625.72;5091004;28;20044;-63
2021/06/23 03:12:59;;;;;;;34.47;17.17;;;;;;;14.05;77.16;101628.53;5109207;28;20100;-64
2021/06/23 03:15:45;;;;;;;38.30;18.20;;;;;;;14.10;76.89;101626.25;5094130;28;20043;-64
2021/06/23 03:18:19;;;;;;;31.15;16.73;;;;;;;14.14;76.43;101635.59;5109338;28;20051;-63
2021/06/23 03:20:48;;;;;;;39.58;18.60;;;;;;;14.13;77.60;101641.91;5098827;28;20077;-64
2021/06/23 03:23:15;;;;;;;32.08;16.83;;;;;;;14.24;76.14;101635.50;5093841;28;20060;-63
2021/06/23 03:25:42;;;;;;;38.92;18.67;;;;;;;14.20;76.15;101634.13;5095353;28;20492;-63
2021/06/23 03:28:10;;;;;;;34.83;16.85;;;;;;;14.43;74.33;101634.47;5095446;28;20068;-63
2021/06/23 03:30:41;;;;;;;34.45;17.70;;;;;;;14.25;74.88;101633.69;5095445;28;20048;-63
2021/06/23 03:33:09;;;;;;;35.63;16.67;;;;;;;14.20;75.59;101634.13;5095212;28;20051;-63
2021/06/23 03:35:56;;;;;;;31.65;16.58;;;;;;;14.21;76.09;101644.66;5066556;28;20071;-63
2021/06/23 03:38:23;;;;;;;36.45;17.17;;;;;;;14.18;76.55;101638.78;5095345;28;20071;-63
2021/06/23 03:40:51;;;;;;;34.72;17.42;;;;;;;14.19;75.23;101643.16;5095238;28;20044;-63
2021/06/23 03:43:19;;;;;;;36.65;17.33;;;;;;;14.17;75.16;101639.78;5093040;28;20047;-63
2021/06/23 03:45:49;;;;;;;32.23;17.33;;;;;;;14.00;76.42;101636.97;5094821;28;20568;-63
2021/06/23 03:48:17;;;;;;;36.60;17.70;;;;;;;14.02;77.78;101648.38;5095200;28;20074;-63
2021/06/23 03:50:52;;;;;;;46.63;17.67;;;;;;;13.98;76.50;101640.81;5062868;28;20072;-63
2021/06/23 03:53:19;;;;;;;33.83;18.00;;;;;;;13.97;76.65;101650.66;5093453;28;20044;-63
2021/06/23 03:55:47;;;;;;;36.33;16.98;;;;;;;14.05;75.94;101652.53;5077057;28;20044;-63
2021/06/23 03:58:16;;;;;;;35.17;16.63;;;;;;;14.26;75.04;101644.22;5094797;28;20044;-63
2021/06/23 04:00:43;;;;;;;33.42;16.48;;;;;;;14.28;75.59;101644.88;5094990;28;20047;-63
2021/06/23 04:03:30;;;;;;;37.70;18.52;;;;;;;14.19;76.60;101646.66;5094792;28;20097;-63
2021/06/23 04:06:17;;;;;;;35.83;17.02;;;;;;;14.27;75.74;101651.19;5076681;28;20606;-63
2021/06/23 04:08:44;;;;;;;30.38;16.65;;;;;;;14.11;75.41;101656.41;5094342;28;20044;-63
2021/06/23 04:11:11;;;;;;;35.13;18.10;;;;;;;14.14;76.15;101653.44;5076935;28;20048;-63
2021/06/23 04:13:38;;;;;;;36.97;18.40;;;;;;;14.14;76.30;101653.44;5076629;28;20047;-63
2021/06/23 04:16:05;;;;;;;36.83;17.00;;;;;;;14.25;74.79;101663.03;5094535;28;20036;-63
2021/06/23 04:18:34;;;;;;;33.17;17.67;;;;;;;14.01;75.95;101654.69;5094637;28;20048;-63
2021/06/23 04:21:02;;;;;;;38.53;17.25;;;;;;;14.04;76.49;101658.84;5074460;28;20043;-63
2021/06/23 04:23:30;;;;;;;35.03;16.90;;;;;;;14.18;74.77;101657.47;5094481;28;20044;-63
2021/06/23 04:25:58;;;;;;;30.08;16.88;;;;;;;14.27;75.96;101659.19;5094224;28;20040;-63
2021/06/23 04:28:24;;;;;;;35.97;16.63;;;;;;;14.17;75.73;101664.66;5094139;28;20522;-63
2021/06/23 04:30:52;;;;;;;37.40;18.05;;;;;;;13.99;76.77;101659.34;5076280;28;20044;-64
2021/06/23 04:33:19;;;;;;;31.45;17.35;;;;;;;14.06;76.74;101659.56;5075229;28;20040;-63
2021/06/23 04:35:55;;;;;;;42.28;16.98;;;;;;;14.08;75.74;101659.38;5077568;28;20530;-63
2021/06/23 04:38:23;;;;;;;36.40;17.00;;;;;;;14.09;75.39;101655.72;5060037;28;20044;-63
2021/06/23 04:40:50;;;;;;;33.35;17.98;;;;;;;14.07;75.12;101658.56;5094114;28;20561;-63
2021/06/23 04:43:17;;;;;;;40.45;18.45;;;;;;;14.00;75.84;101657.50;5093882;28;20044;-63
2021/06/23 04:45:45;;;;;;;34.53;16.85;;;;;;;14.25;74.35;101658.53;5092511;28;20036;-63
2021/06/23 04:48:12;;;;;;;40.40;17.40;;;;;;;14.12;75.33;101652.78;5093291;28;20044;-63
2021/06/23 04:50:39;;;;;;;31.13;16.33;;;;;;;14.17;75.13;101653.13;5094053;28;20089;-63
2021/06/23 04:53:11;;;;;;;35.83;16.27;;;;;;;14.35;74.26;101651.28;5093862;28;20052;-63
2021/06/23 04:55:41;;;;;;;37.35;17.10;;;;;;;14.19;75.17;101654.66;5093727;28;20044;-63
2021/06/23 04:58:13;;;;;;;41.10;18.02;;;;;;;14.21;74.96;101658.00;5075653;28;20040;-63
2021/06/23 05:00:41;;;;;;;32.53;17.05;;;;;;;14.29;75.32;101651.03;5075543;28;20036;-63
2021/06/23 05:03:14;;;;;;;35.75;16.85;;;;;;;14.24;74.20;101651.50;5093498;28;20619;-63
2021/06/23 05:05:41;;;;;;;31.50;16.63;;;;;;;14.21;74.60;101655.34;5075831;28;20048;-63
2021/06/23 05:08:08;;;;;;;34.72;17.60;;;;;;;14.27;74.94;101656.53;5093228;28;20048;-63
2021/06/23 05:10:35;;;;;;;29.15;16.35;;;;;;;14.39;74.76;101662.47;5073709;28;20036;-63
2021/06/23 05:13:02;;;;;;;35.92;16.05;;;;;;;14.51;72.80;101660.38;5075031;28;20416;-63
2021/06/23 05:15:29;;;;;;;32.78;15.88;;;;;;;14.49;73.34;101663.19;5093422;28;20444;-63
2021/06/23 05:17:56;;;;;;;40.20;15.73;;;;;;;14.40;72.84;101656.13;5075093;28;20127;-63
2021/06/23 05:20:23;;;;;;;37.05;15.82;;;;;;;14.51;72.72;101660.38;5093511;28;20044;-63
2021/06/23 05:22:52;;;;;;;32.13;15.93;;;;;;;14.46;73.33;101657.31;5093413;28;20040;-63
2021/06/23 05:25:19;;;;;;;34.70;16.27;;;;;;;14.44;73.46;101664.66;5075180;28;20054;-63
2021/06/23 05:27:47;;;;;;;36.08;16.52;;;;;;;14.67;72.57;101659.66;5092694;28;20131;-63
2021/06/23 05:30:14;;;;;;;30.48;15.95;;;;;;;14.69;72.74;101655.00;5093110;28;20040;-63
2021/06/23 05:32:41;;;;;;;33.85;17.30;;;;;;;14.57;72.89;101659.72;5093278;28;20044;-63
2021/06/23 05:35:08;;;;;;;37.63;16.67;;;;;;;14.55;72.74;101659.91;5073138;28;20043;-63
2021/06/23 05:37:35;;;;;;;34.47;17.00;;;;;;;14.50;73.72;101656.03;5075014;28;20106;-63
2021/06/23 05:40:03;;;;;;;33.85;15.38;;;;;;;14.56;72.53;101666.91;5074644;28;20067;-63
2021/06/23 05:42:30;;;;;;;39.25;16.60;;;;;;;14.53;72.52;101663.72;5092665;28;20048;-63
2021/06/23 05:44:58;;;;;;;33.58;15.98;;;;;;;14.59;71.63;101663.97;5087712;28;20090;-63
2021/06/23 05:47:25;;;;;;;33.90;16.63;;;;;;;14.64;73.27;101657.28;5092670;28;20036;-63
2021/06/23 05:49:52;;;;;;;37.47;16.52;;;;;;;14.70;72.54;101659.34;5057486;28;20063;-63
2021/06/23 05:52:20;;;;;;;40.17;16.17;;;;;;;14.64;73.19;101654.63;5092725;28;20059;-63
2021/06/23 05:54:47;;;;;;;42.90;16.45;;;;;;;14.73;72.53;101670.53;5074170;28;20067;-64
2021/06/23 05:57:13;;;;;;;31.08;15.50;;;;;;;14.71;72.41;101666.34;5074620;28;20044;-64
2021/06/23 05:59:40;;;;;;;32.47;15.70;;;;;;;14.77;71.88;101671.03;5086321;28;20036;-63
2021/06/23 06:02:08;;;;;;;27.83;15.88;;;;;;;14.66;71.59;101682.00;5056265;28;20408;-64
2021/06/23 06:04:35;;;;;;;33.55;15.77;;;;;;;14.66;71.70;101684.66;5092780;28;20044;-63
2021/06/23 06:07:02;;;;;;;35.25;16.27;;;;;;;14.70;72.23;101681.53;5057836;28;20071;-63
2021/06/23 06:09:29;;;;;;;31.17;15.40;;;;;;;14.75;71.21;101683.72;5092298;28;20496;-63
2021/06/23 06:11:55;;;;;;;37.30;14.88;;;;;;;14.81;70.73;101691.13;5058245;28;20496;-64
2021/06/23 06:14:22;;;;;;;27.60;14.90;;;;;;;14.77;70.76;101693.28;5092413;28;20493;-63
2021/06/23 06:16:49;;;;;;;39.88;15.68;;;;;;;14.78;71.58;101686.91;5074122;28;20123;-63
2021/06/23 06:19:16;;;;;;;37.65;14.63;;;;;;;14.78;70.59;101694.09;5074911;28;20123;-63
2021/06/23 06:21:43;;;;;;;33.92;14.90;;;;;;;14.83;70.33;101696.31;5074361;28;20105;-63
2021/06/23 06:24:10;;;;;;;30.38;14.80;;;;;;;14.87;69.94;101686.97;5091764;28;20711;-62
2021/06/23 06:26:36;;;;;;;37.28;14.98;;;;;;;14.88;70.59;101693.97;5037947;28;20210;-63
2021/06/23 06:29:03;;;;;;;30.50;14.90;;;;;;;14.89;71.36;101696.50;5071788;28;20037;-63
2021/06/23 06:31:30;;;;;;;28.23;14.80;;;;;;;14.89;70.84;101701.00;5070724;28;20135;-63
2021/06/23 06:33:57;;;;;;;30.55;15.60;;;;;;;15.05;69.67;101702.94;5039801;28;20415;-63
2021/06/23 06:36:24;;;;;;;36.63;14.15;;;;;;;14.93;70.49;101708.53;5065335;28;20044;-63
2021/06/23 06:38:51;;;;;;;34.60;14.93;;;;;;;14.92;69.90;101711.38;5091351;28;20105;-64
2021/06/23 06:41:19;;;;;;;44.55;15.65;;;;;;;15.01;71.59;101709.56;5092287;28;20411;-63
2021/06/23 06:43:46;;;;;;;33.25;14.70;;;;;;;14.98;69.79;101716.06;5092024;28;20373;-63
2021/06/23 06:46:13;;;;;;;38.40;15.05;;;;;;;15.02;70.97;101712.06;5057967;28;20446;-63
2021/06/23 06:48:40;;;;;;;36.83;15.20;;;;;;;15.01;69.93;101720.25;5074001;28;20545;-63
2021/06/23 06:51:07;;;;;;;35.20;15.50;;;;;;;14.95;70.07;101722.59;5091784;28;20076;-64
2021/06/23 06:53:34;;;;;;;30.63;14.57;;;;;;;15.09;68.77;101722.97;5092241;28;20036;-63
2021/06/23 06:56:00;;;;;;;37.03;14.77;;;;;;;15.01;69.56;101729.13;5093244;28;20051;-63
2021/06/23 06:58:27;;;;;;;35.78;14.73;;;;;;;15.16;68.61;101726.69;5079109;28;20044;-63
2021/06/23 07:00:54;;;;;;;30.05;14.25;;;;;;;14.95;69.26;101727.94;5094374;28;20143;-63
2021/06/23 07:03:21;;;;;;;32.67;15.38;;;;;;;14.96;70.47;101729.59;5076550;28;20036;-63
2021/06/23 07:05:47;;;;;;;31.25;15.60;;;;;;;15.14;70.38;101726.84;5095666;28;20141;-63
2021/06/23 07:08:14;;;;;;;34.30;14.93;;;;;;;15.22;68.75;101731.38;5095442;28;20048;-63
2021/06/23 07:10:41;;;;;;;31.80;14.90;;;;;;;15.11;70.00;101731.66;5095859;28;20435;-63
2021/06/23 07:13:08;;;;;;;29.63;14.88;;;;;;;15.18;68.28;101734.56;5077903;28;20050;-63
2021/06/23 07:15:35;;;;;;;33.10;15.32;;;;;;;14.99;69.38;101739.13;5095829;28;20086;-63
2021/06/23 07:18:02;;;;;;;36.47;15.98;;;;;;;14.94;70.15;101736.09;5095207;28;20400;-62
2021/06/23 07:20:29;;;;;;;38.40;16.20;;;;;;;14.93;70.24;101740.59;5095067;28;20552;-63
2021/06/23 07:22:56;;;;;;;30.98;15.32;;;;;;;15.01;70.71;101736.28;5095245;28;20526;-63
2021/06/23 07:25:23;;;;;;;29.33;15.18;;;;;;;15.12;69.12;101733.34;5076852;28;20048;-63
2021/06/23 07:27:55;;;;;;;39.35;16.23;;;;;;;14.96;69.52;101740.28;5078032;28;20439;-63
2021/06/23 07:30:22;;;;;;;35.22;16.15;;;;;;;15.00;69.87;101743.47;5112926;28;20036;-63
2021/06/23 07:33:07;;;;;;;32.83;15.02;;;;;;;15.12;69.11;101733.34;5087136;28;20054;-66
2021/06/23 07:38:22;;;;;;;32.88;16.42;;;;;;;14.91;69.98;101742.56;5093018;28;20044;-65
2021/06/23 07:40:54;;;;;;;31.55;16.23;;;;;;;14.90;70.44;101745.44;5106403;28;20454;-66
2021/06/23 07:43:21;;;;;;;;;;;;;;;15.03;70.08;101745.84;5100875;28;20523;-66
2021/06/23 07:45:52;;;;;;;29.70;16.15;;;;;;;14.95;70.27;101751.97;5082463;28;19926;-66
2021/06/23 07:48:22;;;;;;;38.80;17.33;;;;;;;14.91;69.96;101749.75;5093167;28;20101;-66
2021/06/23 07:50:52;;;;;;;43.15;16.00;;;;;;;14.86;70.29;101750.25;5091379;28;20032;-65
2021/06/23 07:53:31;;;;;;;36.67;17.00;;;;;;;15.07;70.73;101738.34;5081079;28;20040;-66
2021/06/23 07:56:08;;;;;;;36.08;16.20;;;;;;;15.16;70.75;101730.19;5093339;28;20036;-66
2021/06/23 08:09:47;;;;;;;30.23;16.45;;;;;;;15.45;69.14;101742.34;5092002;28;20450;-66
2021/06/23 08:14:51;;;;;;;31.88;16.52;;;;;;;15.41;69.07;101746.34;5067409;28;20799;-65
2021/06/23 08:17:18;;;;;;;34.80;16.50;;;;;;;15.63;68.97;101746.75;5051797;28;20163;-65
2021/06/23 08:19:45;;;;;;;35.78;15.75;;;;;;;15.72;69.23;101751.13;5032308;28;20037;-65
2021/06/23 08:22:13;;;;;;;35.45;16.30;;;;;;;15.53;69.03;101752.22;5042638;28;20386;-65
2021/06/23 08:24:40;;;;;;;33.33;16.25;;;;;;;15.51;68.77;101748.88;5031245;28;20052;-65
2021/06/23 08:27:09;;;;;;;34.88;15.82;;;;;;;15.47;68.82;101759.06;5051068;28;20534;-65
2021/06/23 08:29:36;;;;;;;39.70;18.67;;;;;;;15.48;70.38;101757.22;5053336;28;20076;-65
2021/06/23 08:32:04;;;;;;;37.72;17.88;;;;;;;15.60;68.85;101755.91;5062455;28;20068;-65
2021/06/23 08:34:31;;;;;;;41.78;17.67;;;;;;;15.58;69.84;101759.78;5049276;28;20037;-65
2021/06/23 08:36:58;;;;;;;37.95;17.60;;;;;;;15.46;70.10;101753.88;5014492;28;20037;-65
2021/06/23 08:39:25;;;;;;;40.22;17.48;;;;;;;15.47;70.03;101753.69;5017524;28;20059;-65
2021/06/23 08:41:52;;;;;;;38.45;16.75;;;;;;;15.47;68.98;101751.03;5063240;28;20432;-65
2021/06/23 08:44:20;;;;;;;36.05;17.73;;;;;;;15.47;68.74;101753.69;5022350;28;20041;-65
2021/06/23 08:46:49;;;;;;;34.97;18.08;;;;;;;15.40;69.46;101755.34;5048738;28;20099;-65
2021/06/23 08:49:17;;;;;;;43.13;17.17;;;;;;;15.36;69.54;101749.47;5047533;28;20041;-65
2021/06/23 08:51:45;;;;;;;31.25;16.92;;;;;;;15.51;69.72;101757.72;5029269;28;20068;-66
2021/06/23 08:54:12;;;;;;;37.65;18.25;;;;;;;15.73;70.25;101759.00;5030789;28;20049;-65
2021/06/23 08:56:40;;;;;;;36.58;18.60;;;;;;;15.54;69.53;101756.59;5047392;28;20072;-65
2021/06/23 08:59:07;;;;;;;38.80;17.80;;;;;;;15.63;69.55;101765.47;5047619;28;20069;-65
2021/06/23 09:01:35;;;;;;;34.00;17.27;;;;;;;15.74;69.40;101760.69;5045617;28;20069;-66
2021/06/23 09:04:09;;;;;;;41.63;17.80;;;;;;;15.89;69.23;101760.88;5053896;28;20045;-65
2021/06/23 09:06:58;;;;;;;36.83;17.05;;;;;;;15.93;68.99;101761.38;5048568;28;20044;-65
2021/06/23 09:09:28;;;;;;;40.75;18.25;;;;;;;15.98;68.33;101755.56;5030792;28;20045;-65
2021/06/23 09:11:58;;;;;;;33.15;17.20;;;;;;;15.83;68.33;101750.00;5029415;28;20397;-65
2021/06/23 09:14:28;;;;;;;32.22;16.67;;;;;;;16.06;67.97;101758.22;5013826;28;20045;-65
2021/06/23 09:17:14;;;;;;;36.33;17.08;;;;;;;16.05;67.81;101762.75;5046013;28;20045;-65
2021/06/23 09:19:51;;;;;;;40.20;17.02;;;;;;;16.25;66.94;101759.75;5043365;28;20040;-66
2021/06/23 09:25:24;;;;;;;35.53;17.42;;;;;;;16.18;67.14;101758.75;5132311;27;20139;-65
2021/06/23 09:27:55;;;;;;;33.78;17.52;;;;;;;16.27;67.37;101755.91;5126661;27;20514;-65
2021/06/23 09:35:47;;;;;;;38.05;16.63;;;;;;;16.44;66.53;101764.75;5129686;27;20390;-65
2021/06/23 09:38:37;;;;;;;39.00;16.42;;;;;;;16.38;65.68;101760.09;5126337;27;20046;-65
2021/06/23 09:41:16;;;;;;;36.92;16.77;;;;;;;16.40;65.40;101767.97;5139767;27;20034;-65
2021/06/23 09:43:59;;;;;;;33.55;16.58;;;;;;;16.44;65.34;101764.75;5144949;27;20099;-65
2021/06/23 09:46:35;;;;;;;37.33;16.45;;;;;;;16.42;65.34;101769.44;5135354;27;20043;-65
2021/06/23 09:49:14;;;;;;;33.97;17.02;;;;;;;16.28;64.87;101768.28;5143059;27;20050;-64
2021/06/23 09:51:49;;;;;;;41.80;17.02;;;;;;;16.45;66.27;101765.63;5141363;27;20186;-66
2021/06/23 09:54:19;;;;;;;38.72;17.58;;;;;;;16.52;66.25;101766.63;5129692;27;20046;-67
2021/06/23 09:57:10;;;;;;;34.40;17.15;;;;;;;16.64;65.64;101761.75;5143269;27;20046;-66
2021/06/23 09:59:38;;;;;;;35.42;16.92;;;;;;;16.66;63.85;101754.38;5142848;27;20510;-66
2021/06/23 10:02:34;;;;;;;33.58;16.00;;;;;;;16.92;64.36;101761.38;5130235;27;20418;-67
2021/06/23 10:07:58;;;;;;;35.33;15.98;;;;;;;17.03;64.11;101764.56;5109975;27;20052;-66
2021/06/23 10:10:42;;;;;;;36.55;17.35;;;;;;;17.05;64.36;101767.91;5106473;28;20042;-66
2021/06/23 10:13:10;;;;;;;30.92;16.38;;;;;;;17.13;64.02;101763.50;5096496;28;20071;-66
2021/06/23 10:15:37;;;;;;;41.30;16.63;;;;;;;17.12;64.33;101754.66;5095523;28;20052;-67
2021/06/23 10:18:05;;;;;;;35.53;16.17;;;;;;;17.24;64.67;101763.13;5087947;28;20052;-66
2021/06/23 10:20:32;;;;;;;31.60;15.93;;;;;;;17.52;63.14;101766.22;5092819;28;20036;-66
2021/06/23 10:23:04;;;;;;;43.10;16.52;;;;;;;17.34;62.75;101762.94;5109096;28;20040;-67
2021/06/23 10:25:31;;;;;;;30.23;15.27;;;;;;;17.26;63.87;101758.44;5108976;28;20118;-68
2021/06/23 10:27:59;;;;;;;25.00;15.10;;;;;;;17.21;64.10;101764.34;5108974;28;20135;-66
2021/06/23 10:30:29;;;;;;;34.40;15.13;;;;;;;17.23;62.82;101758.81;5104634;28;20040;-67
2021/06/23 10:32:57;;;;;;;35.38;16.15;;;;;;;17.15;63.03;101762.31;5095843;28;20457;-64
2021/06/23 10:35:25;;;;;;;43.47;15.55;;;;;;;17.26;65.46;101763.78;5105733;28;20043;-65
2021/06/23 10:37:53;;;;;;;31.33;14.40;;;;;;;17.31;64.32;101763.28;5107865;28;20044;-64
2021/06/23 10:40:20;;;;;;;33.83;15.70;;;;;;;17.48;63.97;101762.19;5107577;28;20040;-64
2021/06/23 10:42:48;;;;;;;40.55;14.85;;;;;;;17.61;62.80;101757.13;5102640;28;20132;-64
2021/06/23 10:45:15;;;;;;;42.65;14.43;;;;;;;17.60;62.73;101755.44;5098321;28;20044;-64
2021/06/23 10:47:46;;;;;;;34.67;14.60;;;;;;;17.58;63.27;101757.47;5108886;28;20036;-64
2021/06/23 10:50:33;;;;;;;27.77;13.63;;;;;;;17.72;61.27;101755.03;5091414;28;20044;-64
2021/06/23 10:53:23;;;;;;;33.00;13.70;;;;;;;17.68;61.31;101762.59;5092037;28;20044;-64
2021/06/23 10:55:50;;;;;;;29.85;14.63;;;;;;;17.62;61.59;101761.44;5100235;28;20075;-64
2021/06/23 10:58:27;;;;;;;32.28;13.65;;;;;;;17.57;60.70;101763.84;5088315;28;20522;-64
2021/06/23 11:01:06;;;;;;;29.33;13.35;;;;;;;17.48;60.91;101764.06;5107206;28;20042;-64
2021/06/23 11:04:02;;;;;;;28.05;13.32;;;;;;;17.50;60.29;101768.25;5102472;28;20058;-64
2021/06/23 11:06:40;;;;;;;39.55;13.68;;;;;;;17.46;61.91;101774.94;5095326;28;20036;-64
2021/06/23 11:09:28;;;;;;;32.97;14.65;;;;;;;17.58;60.28;101773.56;5094973;28;20052;-64
2021/06/23 11:11:56;;;;;;;26.25;12.70;;;;;;;17.66;60.21;101764.63;5101920;28;20047;-63
2021/06/23 11:14:25;;;;;;;32.08;12.85;;;;;;;17.96;58.89;101767.50;5102949;28;20060;-64
2021/06/23 11:16:52;;;;;;;26.80;13.27;;;;;;;17.86;59.69;101766.91;5071654;28;20488;-63
2021/06/23 11:19:19;;;;;;;34.00;14.43;;;;;;;17.86;60.00;101767.72;5083635;28;20090;-63
2021/06/23 11:21:46;;;;;;;29.65;12.65;;;;;;;17.81;59.64;101760.19;5091824;28;20048;-64
2021/06/23 11:24:16;;;;;;;34.50;14.18;;;;;;;17.84;59.21;101764.34;5081956;28;20419;-64
2021/06/23 11:29:23;;;;;;;36.85;13.77;;;;;;;17.78;59.93;101759.72;5099629;27;20600;-64
2021/06/23 11:31:55;;;;;;;33.92;13.55;;;;;;;17.82;59.53;101752.97;5093022;28;20044;-64
2021/06/23 11:37:17;;;;;;;31.48;12.80;;;;;;;18.16;58.62;101759.81;5090317;27;20405;-64
2021/06/23 11:39:44;;;;;;;33.00;13.38;;;;;;;18.24;58.76;101765.13;5068613;28;20426;-65
2021/06/23 11:42:12;;;;;;;32.20;13.57;;;;;;;18.48;58.93;101763.25;5072645;28;20071;-65
2021/06/23 11:44:43;;;;;;;35.72;13.65;;;;;;;18.35;57.81;101759.31;5081593;28;20044;-64
2021/06/23 11:47:10;;;;;;;31.20;12.27;;;;;;;18.45;57.73;101761.78;5079183;28;20761;-64
2021/06/23 11:49:38;;;;;;;26.90;13.32;;;;;;;18.54;58.38;101765.22;5073736;28;20052;-65
2021/06/23 11:52:06;;;;;;;29.88;12.88;;;;;;;18.51;57.97;101762.88;5076950;28;20548;-64
2021/06/23 11:54:37;;;;;;;32.07;13.50;;;;;;;18.39;58.62;101762.47;5049501;28;20068;-64
2021/06/23 11:57:05;;;;;;;29.95;13.00;;;;;;;18.41;58.77;101761.28;5070073;28;20039;-64
2021/06/23 11:59:32;;;;;;;28.67;13.02;;;;;;;18.50;58.24;101766.59;5077175;28;20048;-64
2021/06/23 12:01:59;;;;;;;30.90;13.23;;;;;;;18.43;59.12;101763.81;5079921;28;20053;-65